createdAt,value
2019-05-28T00:01:10.204Z,63.14
2019-05-28T00:03:38.856Z,62.85
2019-05-28T00:06:07.485Z,62.92
2019-05-28T00:08:36.196Z,63.11
2019-05-28T00:11:04.780Z,62.94
2019-05-28T00:13:33.294Z,63.18
2019-05-28T00:16:01.741Z,62.87
2019-05-28T00:18:30.353Z,63.03
2019-05-28T00:20:58.795Z,63.16
2019-05-28T00:23:27.354Z,63.33
2019-05-28T00:25:55.853Z,63.13
2019-05-28T00:28:24.429Z,64.75
2019-05-28T00:30:52.920Z,64.07
2019-05-28T00:33:21.498Z,64.25
2019-05-28T00:35:49.978Z,63.68
2019-05-28T00:38:18.559Z,63.86
2019-05-28T00:40:47.122Z,63.39
2019-05-28T00:43:15.564Z,63.05
2019-05-28T00:45:44.183Z,62.91
2019-05-28T00:48:12.825Z,62.58
2019-05-28T00:50:41.467Z,62.61
2019-05-28T00:53:10.059Z,62.53
2019-05-28T00:55:39.742Z,62.84
2019-05-28T00:58:09.951Z,62.39
2019-05-28T01:00:49.970Z,62.96
2019-05-28T01:03:18.858Z,63.21
2019-05-28T01:05:47.830Z,63.33
2019-05-28T01:08:16.481Z,63.55
2019-05-28T01:10:45.857Z,63.17
2019-05-28T01:13:14.421Z,63.41
2019-05-28T01:15:43.014Z,63.83
2019-05-28T01:18:11.780Z,63.86
2019-05-28T01:20:40.234Z,63.66
2019-05-28T01:23:08.762Z,63.57
2019-05-28T01:25:37.509Z,63.55
2019-05-28T01:28:06.209Z,64.55
2019-05-28T01:30:34.789Z,64.08
2019-05-28T01:33:03.626Z,64.25
2019-05-28T01:35:32.080Z,64.06
2019-05-28T01:38:00.522Z,64.04
2019-05-28T01:40:29.020Z,63.81
2019-05-28T01:42:57.642Z,63.42
2019-05-28T01:45:26.110Z,63.82
2019-05-28T01:47:57.546Z,64.27
2019-05-28T01:50:24.923Z,63.92
2019-05-28T01:52:53.576Z,64.00
2019-05-28T01:55:22.296Z,63.61
2019-05-28T01:57:51.111Z,64.31
2019-05-28T02:00:20.616Z,64.65
2019-05-28T02:02:49.086Z,64.81
2019-05-28T02:05:17.956Z,64.70
2019-05-28T02:07:46.449Z,64.44
2019-05-28T02:10:15.927Z,64.37
2019-05-28T02:12:44.423Z,64.51
2019-05-28T02:15:13.817Z,64.23
2019-05-28T02:17:42.334Z,64.22
2019-05-28T02:20:11.891Z,64.28
2019-05-28T02:22:40.456Z,64.48
2019-05-28T02:25:09.883Z,64.69
2019-05-28T02:27:38.452Z,65.34
2019-05-28T02:30:10.098Z,65.16
2019-05-28T02:32:39.157Z,65.20
2019-05-28T02:35:08.381Z,65.31
2019-05-28T02:37:36.975Z,65.09
2019-05-28T02:40:07.624Z,65.02
2019-05-28T02:42:36.578Z,64.96
2019-05-28T02:45:09.855Z,65.26
2019-05-28T02:47:38.550Z,65.22
2019-05-28T02:50:09.746Z,65.13
2019-05-28T02:52:39.502Z,65.14
2019-05-28T02:55:10.126Z,64.98
2019-05-28T02:57:40.626Z,65.55
2019-05-28T03:00:14.597Z,65.62
2019-05-28T03:02:46.075Z,65.56
2019-05-28T03:05:15.642Z,65.56
2019-05-28T03:07:47.308Z,65.56
2019-05-28T03:10:18.806Z,65.22
2019-05-28T03:12:47.314Z,65.40
2019-05-28T03:15:16.252Z,65.31
2019-05-28T03:17:47.158Z,65.19
2019-05-28T03:20:16.075Z,65.38
2019-05-28T03:22:46.229Z,65.45
2019-05-28T03:25:14.899Z,65.35
2019-05-28T03:27:43.683Z,65.36
2019-05-28T03:30:13.704Z,65.38
2019-05-28T03:32:42.273Z,65.64
2019-05-28T03:35:10.997Z,66.07
2019-05-28T03:37:42.437Z,66.18
2019-05-28T03:40:12.911Z,65.92
2019-05-28T03:42:41.661Z,65.79
2019-05-28T03:45:11.140Z,66.29
2019-05-28T03:47:39.642Z,66.63
2019-05-28T03:50:08.968Z,66.51
2019-05-28T03:52:37.459Z,66.07
2019-05-28T03:55:07.522Z,66.03
2019-05-28T03:57:36.157Z,66.13
2019-05-28T04:00:06.280Z,65.97
2019-05-28T04:02:34.729Z,66.35
2019-05-28T04:05:03.491Z,66.01
2019-05-28T04:07:31.925Z,66.76
2019-05-28T04:10:00.487Z,66.16
2019-05-28T04:12:29.129Z,66.75
2019-05-28T04:14:57.871Z,66.57
2019-05-28T04:17:26.514Z,66.38
2019-05-28T04:19:55.006Z,66.28
2019-05-28T04:22:23.570Z,66.20
2019-05-28T04:24:52.153Z,65.92
2019-05-28T04:27:20.640Z,66.18
2019-05-28T04:29:49.136Z,66.27
2019-05-28T04:32:17.704Z,67.34
2019-05-28T04:34:46.158Z,66.93
2019-05-28T04:37:14.798Z,66.45
2019-05-28T04:39:43.253Z,66.49
2019-05-28T04:42:11.903Z,66.80
2019-05-28T04:44:40.593Z,66.38
2019-05-28T04:47:09.212Z,68.14
2019-05-28T04:49:37.886Z,69.23
2019-05-28T04:52:06.615Z,69.87
2019-05-28T04:54:35.057Z,70.22
2019-05-28T04:57:03.749Z,69.77
2019-05-28T04:59:32.360Z,68.97
2019-05-28T05:02:01.051Z,67.21
2019-05-28T05:04:29.503Z,66.95
2019-05-28T05:06:58.161Z,69.10
2019-05-28T05:09:27.332Z,68.94
2019-05-28T05:11:55.815Z,70.11
2019-05-28T05:14:24.246Z,69.23
2019-05-28T05:16:52.855Z,68.92
2019-05-28T05:19:21.504Z,67.76
2019-05-28T05:21:50.246Z,67.04
2019-05-28T05:24:18.894Z,67.50
2019-05-28T05:26:47.559Z,66.83
2019-05-28T05:29:16.053Z,66.42
2019-05-28T05:31:44.623Z,65.55
2019-05-28T05:34:13.116Z,68.16
2019-05-28T05:36:41.691Z,67.05
2019-05-28T05:39:10.578Z,67.54
2019-05-28T05:41:39.176Z,67.12
2019-05-28T05:44:07.801Z,66.33
2019-05-28T05:46:36.240Z,67.04
2019-05-28T05:49:04.968Z,67.49
2019-05-28T05:51:33.499Z,68.42
2019-05-28T05:54:02.229Z,67.57
2019-05-28T05:56:30.873Z,66.52
2019-05-28T05:58:59.636Z,66.42
2019-05-28T06:01:28.247Z,66.96
2019-05-28T06:03:56.990Z,66.76
2019-05-28T06:06:25.627Z,67.50
2019-05-28T06:08:54.347Z,68.00
2019-05-28T06:11:22.999Z,67.67
2019-05-28T06:13:51.703Z,66.64
2019-05-28T06:16:20.432Z,67.19
2019-05-28T06:18:49.073Z,68.10
2019-05-28T06:21:19.062Z,67.35
2019-05-28T06:23:47.951Z,68.17
2019-05-28T06:26:16.686Z,67.95
2019-05-28T06:28:45.334Z,67.57
2019-05-28T06:31:14.056Z,67.06
2019-05-28T06:33:55.705Z,67.06
2019-05-28T06:36:13.002Z,67.13
2019-05-28T06:38:41.605Z,67.78
2019-05-28T06:41:10.286Z,67.53
2019-05-28T06:43:39.059Z,68.12
2019-05-28T06:46:07.669Z,67.63
2019-05-28T06:48:36.159Z,67.58
2019-05-28T06:51:04.904Z,67.03
2019-05-28T06:53:33.458Z,66.90
2019-05-28T06:56:02.181Z,67.70
2019-05-28T06:58:39.462Z,67.05
2019-05-28T07:01:01.247Z,68.48
2019-05-28T07:03:30.113Z,68.25
2019-05-28T07:06:07.312Z,67.62
2019-05-28T07:08:28.950Z,67.41
2019-05-28T07:10:58.646Z,67.25
2019-05-28T07:13:27.559Z,67.42
2019-05-28T07:15:56.206Z,66.43
2019-05-28T07:18:24.880Z,65.85
2019-05-28T07:20:53.616Z,65.99
2019-05-28T07:23:22.387Z,65.91
2019-05-28T07:25:50.974Z,65.32
2019-05-28T07:28:19.630Z,64.85
2019-05-28T07:30:48.369Z,65.18
2019-05-28T07:33:17.047Z,65.43
2019-05-28T07:35:46.551Z,64.84
2019-05-28T07:38:15.290Z,64.92
2019-05-28T07:40:44.244Z,64.55
2019-05-28T07:43:13.069Z,64.93
2019-05-28T07:45:41.655Z,65.64
2019-05-28T07:48:10.145Z,65.74
2019-05-28T07:50:38.724Z,65.76
2019-05-28T07:53:07.444Z,65.95
2019-05-28T07:55:36.091Z,64.88
2019-05-28T07:58:04.895Z,64.86
2019-05-28T08:00:41.247Z,65.09
2019-05-28T08:03:10.422Z,66.56
2019-05-28T08:05:39.207Z,64.57
2019-05-28T08:08:10.581Z,64.47
2019-05-28T08:10:40.097Z,64.37
2019-05-28T08:13:08.991Z,65.75
2019-05-28T08:15:37.563Z,63.88
2019-05-28T08:18:06.440Z,64.29
2019-05-28T08:20:35.689Z,63.45
2019-05-28T08:23:04.415Z,63.37
2019-05-28T08:25:46.956Z,63.57
2019-05-28T08:28:18.644Z,62.31
2019-05-28T08:30:34.346Z,62.16
2019-05-28T08:33:03.014Z,63.08
2019-05-28T08:35:31.713Z,62.04
2019-05-28T08:38:00.341Z,64.00
2019-05-28T08:40:29.275Z,63.95
2019-05-28T08:42:57.931Z,62.72
2019-05-28T08:45:26.450Z,62.71
2019-05-28T08:47:55.155Z,63.43
2019-05-28T08:50:33.868Z,63.97
2019-05-28T08:52:54.301Z,62.25
2019-05-28T08:55:23.093Z,62.38
2019-05-28T08:57:51.682Z,62.91
2019-05-28T09:00:43.991Z,62.37
2019-05-28T09:03:13.146Z,63.27
2019-05-28T09:05:41.890Z,63.15
2019-05-28T09:08:10.465Z,62.44
2019-05-28T09:10:39.105Z,62.70
2019-05-28T09:13:07.748Z,62.19
2019-05-28T09:15:36.262Z,62.41
2019-05-28T09:18:05.388Z,60.92
2019-05-28T09:20:34.109Z,61.49
2019-05-28T09:23:02.866Z,61.25
2019-05-28T09:25:31.309Z,59.79
2019-05-28T09:27:59.795Z,61.30
2019-05-28T09:30:28.346Z,61.66
2019-05-28T09:32:56.901Z,61.58
2019-05-28T09:35:41.197Z,56.86
2019-05-28T09:37:55.600Z,56.86
2019-05-28T09:40:24.283Z,58.24
2019-05-28T09:42:52.804Z,57.43
2019-05-28T09:45:23.263Z,57.26
2019-05-28T09:47:55.040Z,59.25
2019-05-28T09:50:30.555Z,56.71
2019-05-28T09:52:55.045Z,56.04
2019-05-28T09:55:22.505Z,56.03
2019-05-28T09:57:50.954Z,52.58
2019-05-28T10:00:22.279Z,51.98
2019-05-28T10:02:51.918Z,53.06
2019-05-28T13:52:12.304Z,62.59
2019-05-28T13:54:39.921Z,62.97
2019-05-28T13:57:08.400Z,62.25
2019-05-28T13:59:36.870Z,63.40
2019-05-28T14:02:05.423Z,64.12
2019-05-28T14:04:33.872Z,63.07
2019-05-28T14:07:02.436Z,63.82
2019-05-28T14:09:30.901Z,63.55
2019-05-28T14:11:59.336Z,62.30
2019-05-28T14:14:27.888Z,63.23
2019-05-28T14:16:56.342Z,65.24
2019-05-28T14:19:24.828Z,66.18
2019-05-28T14:21:53.286Z,67.20
2019-05-28T14:24:21.787Z,67.75
2019-05-28T14:26:50.321Z,66.71
2019-05-28T14:29:18.809Z,68.26
2019-05-28T14:31:47.267Z,67.83
2019-05-28T14:34:15.824Z,71.31
2019-05-28T14:36:44.271Z,71.73
2019-05-28T14:39:12.775Z,72.97
2019-05-28T14:41:41.220Z,73.55
2019-05-28T14:44:09.740Z,73.54
2019-05-28T14:46:38.228Z,73.28
2019-05-28T14:49:07.907Z,75.32
2019-05-28T14:51:36.830Z,76.27
2019-05-28T14:54:05.424Z,76.48
2019-05-28T14:56:33.928Z,76.40
2019-05-28T14:59:02.395Z,76.83
2019-05-28T15:01:30.896Z,77.61
2019-05-28T15:03:59.341Z,77.66
2019-05-28T15:06:27.847Z,77.80
2019-05-28T15:08:56.299Z,78.00
2019-05-28T15:11:24.803Z,77.51
2019-05-28T15:13:53.245Z,77.79
2019-05-28T15:17:14.920Z,77.76
2019-05-28T15:18:58.234Z,78.08
2019-05-28T15:21:26.688Z,78.46
2019-05-28T15:23:55.187Z,78.58
2019-05-28T15:26:23.633Z,78.05
2019-05-28T15:28:52.148Z,78.25
2019-05-28T15:31:20.588Z,78.98
2019-05-28T15:33:49.075Z,79.52
2019-05-28T15:36:17.523Z,79.41
2019-05-28T15:38:46.023Z,78.69
2019-05-28T15:41:14.529Z,78.19
2019-05-28T15:43:43.031Z,78.83
2019-05-28T15:46:11.483Z,78.94
2019-05-28T15:48:39.915Z,79.00
2019-05-28T15:51:08.431Z,78.92
2019-05-28T15:53:36.853Z,79.08
2019-05-28T15:56:05.355Z,78.59
2019-05-28T15:58:33.801Z,79.37
2019-05-28T16:01:02.406Z,79.81
2019-05-28T16:03:30.882Z,79.54
2019-05-28T16:05:59.424Z,79.76
2019-05-28T16:08:27.873Z,79.97
2019-05-28T16:10:56.371Z,79.75
2019-05-28T16:13:24.829Z,80.14
2019-05-28T16:15:53.315Z,79.55
2019-05-28T16:18:21.752Z,79.68
2019-05-28T16:20:50.252Z,79.28
2019-05-28T16:23:18.705Z,79.54
2019-05-28T16:25:47.209Z,79.50
2019-05-28T16:28:15.652Z,79.55
2019-05-28T16:30:44.108Z,78.73
2019-05-28T16:33:12.602Z,79.08
2019-05-28T16:35:41.032Z,79.26
2019-05-28T16:38:09.512Z,79.53
2019-05-28T16:40:37.952Z,79.87
2019-05-28T16:43:06.472Z,79.79
2019-05-28T16:45:34.909Z,79.75
2019-05-28T16:48:03.425Z,79.75
2019-05-28T16:50:31.872Z,79.10
2019-05-28T16:53:00.358Z,79.71
2019-05-28T16:55:28.807Z,79.06
2019-05-28T16:57:57.279Z,79.37
2019-05-28T17:00:25.868Z,79.92
2019-05-28T17:02:54.350Z,79.96
2019-05-28T17:05:22.789Z,79.87
2019-05-28T17:07:51.342Z,79.35
2019-05-28T17:10:32.170Z,79.50
2019-05-28T17:12:50.185Z,79.20
2019-05-28T17:15:19.482Z,78.98
2019-05-28T17:17:47.927Z,79.34
2019-05-28T17:20:16.755Z,79.22
2019-05-28T17:22:45.203Z,78.90
2019-05-28T17:25:13.901Z,79.35
2019-05-28T17:27:42.341Z,79.41
2019-05-28T17:30:19.284Z,79.47
2019-05-28T17:32:41.239Z,79.21
2019-05-28T17:35:10.572Z,79.59
2019-05-28T17:37:39.031Z,79.01
2019-05-28T17:40:08.146Z,79.35
2019-05-28T17:42:36.680Z,79.68
2019-05-28T17:45:06.790Z,79.98
2019-05-28T17:47:43.345Z,79.62
2019-05-28T17:50:09.813Z,79.67
2019-05-28T17:52:38.226Z,79.67
2019-05-28T17:55:07.448Z,79.84
2019-05-28T17:57:35.975Z,79.44
2019-05-28T18:00:08.180Z,79.41
2019-05-28T18:02:36.711Z,80.46
2019-05-28T18:05:06.852Z,80.15
2019-05-28T18:07:35.919Z,80.09
2019-05-28T18:10:06.567Z,80.30
2019-05-28T18:12:35.057Z,80.66
2019-05-28T18:15:05.011Z,80.15
2019-05-28T18:17:33.504Z,80.09
2019-05-28T18:20:02.006Z,79.79
2019-05-28T18:22:30.527Z,79.81
2019-05-28T18:24:58.969Z,79.36
2019-05-28T18:27:28.333Z,79.84
2019-05-28T18:29:56.782Z,80.14
2019-05-28T18:32:25.289Z,79.78
2019-05-28T18:34:53.740Z,79.99
2019-05-28T18:37:22.303Z,80.32
2019-05-28T18:39:50.751Z,80.00
2019-05-28T18:42:19.266Z,80.49
2019-05-28T18:44:47.718Z,80.07
2019-05-28T18:47:16.245Z,80.78
2019-05-28T18:49:44.660Z,81.03
2019-05-28T18:52:13.128Z,80.55
2019-05-28T18:54:41.616Z,81.05
2019-05-28T18:57:10.070Z,80.89
2019-05-28T18:59:38.679Z,80.80
2019-05-28T19:02:07.480Z,80.78
2019-05-28T19:04:35.986Z,80.68
2019-05-28T19:07:04.496Z,81.02
2019-05-28T19:09:32.993Z,81.29
2019-05-28T19:12:01.444Z,81.10
2019-05-28T19:14:29.940Z,81.01
2019-05-28T19:16:58.382Z,81.24
2019-05-28T19:19:26.883Z,81.44
2019-05-28T19:21:55.350Z,81.50
2019-05-28T19:24:23.780Z,81.89
2019-05-28T19:26:52.269Z,81.33
2019-05-28T19:29:20.722Z,81.24
2019-05-28T19:31:49.224Z,81.52
2019-05-28T19:34:17.672Z,81.33
2019-05-28T19:36:46.913Z,81.14
2019-05-28T19:39:15.704Z,81.00
2019-05-28T19:41:53.598Z,81.54
2019-05-28T19:44:14.347Z,81.31
2019-05-28T19:46:42.829Z,81.17
2019-05-28T19:49:11.352Z,81.14
2019-05-28T19:51:40.123Z,81.41
2019-05-28T19:54:08.712Z,81.21
2019-05-28T19:56:37.291Z,81.91
2019-05-28T19:59:05.802Z,81.86
2019-05-28T20:01:34.394Z,81.69
2019-05-28T20:04:02.947Z,81.41
2019-05-28T20:06:31.382Z,81.33
2019-05-28T20:08:59.889Z,81.62
2019-05-28T20:11:28.347Z,81.68
2019-05-28T20:13:56.852Z,81.40
2019-05-28T20:16:25.679Z,81.22
2019-05-28T20:18:54.157Z,81.22
2019-05-28T20:21:22.608Z,81.25
2019-05-28T20:23:52.629Z,81.05
2019-05-28T20:26:21.359Z,81.46
2019-05-28T20:28:58.709Z,81.41
2019-05-28T20:31:20.020Z,81.58
2019-05-28T20:33:48.505Z,81.59
2019-05-28T20:36:16.947Z,81.47
2019-05-28T20:38:45.503Z,82.26
2019-05-28T20:41:14.024Z,82.04
2019-05-28T20:43:42.458Z,81.86
2019-05-28T20:46:10.967Z,82.55
2019-05-28T20:48:39.432Z,82.00
2019-05-28T20:51:19.652Z,81.66
2019-05-28T20:53:38.146Z,81.75
2019-05-28T20:56:06.638Z,81.68
2019-05-28T20:58:40.107Z,81.72
2019-05-28T21:01:05.444Z,81.92
2019-05-28T21:03:33.901Z,81.70
2019-05-28T21:06:02.457Z,81.35
2019-05-28T21:08:30.907Z,81.60
2019-05-28T21:10:59.556Z,81.99
2019-05-28T21:13:28.055Z,81.66
2019-05-28T21:15:56.886Z,81.54
2019-05-28T21:18:25.597Z,81.51
2019-05-28T21:20:54.032Z,81.24
2019-05-28T21:23:22.750Z,81.12
2019-05-28T21:25:52.135Z,81.34
2019-05-28T21:28:20.967Z,81.49
2019-05-28T21:30:50.590Z,81.63
2019-05-28T21:33:19.267Z,81.52
2019-05-28T21:35:47.719Z,81.49
2019-05-28T21:38:16.201Z,81.24
2019-05-28T21:40:44.644Z,80.98
2019-05-28T21:43:13.122Z,80.97
2019-05-28T21:45:41.635Z,81.21
2019-05-28T21:48:10.147Z,80.53
2019-05-28T21:50:38.585Z,80.24
2019-05-28T21:53:07.026Z,79.35
2019-05-28T21:55:35.519Z,80.38
2019-05-28T21:58:04.427Z,79.46
2019-05-28T22:00:46.284Z,79.23
2019-05-28T22:03:14.886Z,79.01
2019-05-28T22:05:43.458Z,78.96
2019-05-28T22:08:11.885Z,78.24
2019-05-28T22:10:40.445Z,78.97
2019-05-28T22:13:20.332Z,78.66
2019-05-28T22:15:39.573Z,78.71
2019-05-28T22:18:08.531Z,78.70
2019-05-28T22:20:37.223Z,79.49
2019-05-28T22:23:05.733Z,79.96
2019-05-28T22:25:34.285Z,79.58
2019-05-28T22:28:02.909Z,80.03
2019-05-28T22:30:31.507Z,79.67
2019-05-28T22:33:00.121Z,80.14
2019-05-28T22:35:28.609Z,80.76
2019-05-28T22:37:57.242Z,80.57
2019-05-28T22:40:25.689Z,80.15
2019-05-28T22:42:54.248Z,80.56
2019-05-28T22:45:22.831Z,80.18
2019-05-28T22:47:51.799Z,80.17
2019-05-28T22:50:23.126Z,79.26
2019-05-28T22:52:51.508Z,80.18
2019-05-28T22:55:20.094Z,78.89
2019-05-28T22:57:48.579Z,78.87
2019-05-28T23:00:17.869Z,78.81
2019-05-28T23:02:46.500Z,78.57
2019-05-28T23:05:15.174Z,77.84
2019-05-28T23:07:43.744Z,77.86
2019-05-28T23:10:12.624Z,79.15
2019-05-28T23:12:41.071Z,79.96
2019-05-28T23:15:10.562Z,79.45
2019-05-28T23:17:39.175Z,79.06
2019-05-28T23:20:10.963Z,79.21
2019-05-28T23:22:39.815Z,79.28
2019-05-28T23:25:09.677Z,78.32
2019-05-28T23:27:38.533Z,78.25
2019-05-28T23:30:22.437Z,76.77
2019-05-28T23:32:38.746Z,77.04
2019-05-28T23:35:08.956Z,77.04
2019-05-28T23:37:37.503Z,77.39
2019-05-28T23:40:09.163Z,77.86
2019-05-28T23:42:37.933Z,77.71
2019-05-28T23:45:07.870Z,77.77
2019-05-28T23:47:36.623Z,77.37
2019-05-28T23:50:06.801Z,78.12
2019-05-28T23:52:35.548Z,78.14
2019-05-28T23:55:05.722Z,79.32
2019-05-28T23:57:34.476Z,79.48
